LPFRLXGB

Guest
Details From LPFR - Faro
To LXGB - Gibraltar
Flight Number -
Tags generated
Created
Modified
Stats Distance 137 nm / 253 km
Max Altitude 9,800 ft / 2,987 m
Waypoints 3
Social Downloads 0
Likes 0
Share VATSIM

Download

Looking for another format? Having issues loading an existing format? Contact us
Advertisement - Login to hide

Notes

Basic altitude profile: - Ascent Rate: 2500ft/min - Ascent Speed: 160kts - Cruise Altitude: 15000ft - Cruise Speed: 220kts - Descent Rate: 1500ft/min - Descent Speed: 200kts Options: - Use NATs: yes - Use PACOTS: yes - Use low airways: yes - Use high airways: yes

Route

LPFR PIREN LXGB

ID Type Via Altitude Latitude Longitude Leg Dist Tot Dist Heading (true) Name
O LPFR APT - 0 ft / 0 m 37.01534˚ -7.97233˚ - 0 nm - Faro
PIREN FIX - 9,800 ft / 2,987 m 36.83333˚ -7.38333˚ 30 nm 30 nm 111° / 111° -
O LXGB APT - 0 ft / 0 m 36.15121˚ -5.34966˚ 106 nm 136 nm 112° / 113° Gibraltar

Altitude Profile

Advertisement - Login to hide

LPFR

Details ICAO LPFR (FAO)
Name Faro
Region Portugal
Timezone Europe/Lisbon (UTC+1.0)
Stats Elevation 24 ft / 7 m (AMSL)
Location 37.015336° -7.972327°
Runways 1
Magnetic Variation 1.884° W

METAR

LPFR 230000Z 33006KT CAVOK 15/12 Q1015

Decode

TAF

TAF LPFR 222300Z 2300/2324 33005KT CAVOK BECMG 2309/2312 24008KT BECMG 2314/2317 27013KT 9999 FEW025 SCT040 PROB40 TEMPO 2314/2320 8000 SHRA BKN020 FEW030TCU

Decode

Departure Runways

ID Width Length Bearing (true) Bearing (mag) Surface Threshold Offset Overrun Length
10 148 ft / 45 m 8,148 ft / 2,484 m 100.08° 101.96° Asphalt 148 ft / 45 m 0 ft / 0 m
28 148 ft / 45 m 8,148 ft / 2,484 m 280.10° 281.98° Asphalt 148 ft / 45 m 0 ft / 0 m

LXGB

Details ICAO LXGB (GIB)
Name Gibraltar
Region Gibralter
Timezone Europe/Gibraltar (UTC+2.0)
Stats Elevation 15 ft / 5 m (AMSL)
Location 36.151209° -5.349664°
Runways 1
Magnetic Variation 1.073° W

METAR

LXGB 222350Z AUTO 05005KT 9999 // NCD 18/16 Q1015

Decode

TAF

Not found

Destination Runways

ID Width Length Bearing (true) Bearing (mag) Surface Threshold Offset Overrun Length
27 151 ft / 46 m 5,992 ft / 1,826 m 267.56° 268.63° Asphalt 367 ft / 112 m 89 ft / 27 m
9 151 ft / 46 m 5,992 ft / 1,826 m 87.54° 88.61° Asphalt 299 ft / 91 m 52 ft / 16 m

Popular Alternatives